createdAt,value
2023-02-11T00:00:09.509Z,2.25
2023-02-11T00:02:37.180Z,2.33
2023-02-11T00:05:08.221Z,2.27
2023-02-11T00:07:36.691Z,2.27
2023-02-11T00:10:07.220Z,2.47
2023-02-11T00:12:35.153Z,2.38
2023-02-11T00:15:02.948Z,2.44
2023-02-11T00:17:33.248Z,2.44
2023-02-11T00:20:00.852Z,2.44
2023-02-11T00:22:29.956Z,2.50
2023-02-11T00:24:57.625Z,2.60
2023-02-11T00:27:25.431Z,2.64
2023-02-11T00:29:53.242Z,2.76
2023-02-11T00:32:27.151Z,2.80
2023-02-11T00:34:56.424Z,2.84
2023-02-11T00:37:23.966Z,3.06
2023-02-11T00:39:51.686Z,3.18
2023-02-11T00:42:19.270Z,3.05
2023-02-11T00:44:46.881Z,3.08
2023-02-11T00:47:18.207Z,2.95
2023-02-11T00:49:46.041Z,3.04
2023-02-11T00:52:15.673Z,3.19
2023-02-11T00:54:43.465Z,3.16
2023-02-11T00:57:11.172Z,3.19
2023-02-11T00:59:38.911Z,3.29
2023-02-11T01:02:06.484Z,3.12
2023-02-11T01:04:35.052Z,3.17
2023-02-11T01:07:05.034Z,3.35
2023-02-11T01:09:33.901Z,3.19
2023-02-11T01:12:01.885Z,2.99
2023-02-11T01:14:29.587Z,3.09
2023-02-11T01:16:57.567Z,3.02
2023-02-11T01:19:25.460Z,3.16
2023-02-11T01:21:52.990Z,3.23
2023-02-11T01:24:20.509Z,3.33
2023-02-11T01:26:49.609Z,3.31
2023-02-11T01:29:17.473Z,3.40
2023-02-11T01:31:45.987Z,3.28
2023-02-11T01:34:13.934Z,3.38
2023-02-11T01:36:42.184Z,3.34
2023-02-11T01:39:10.405Z,3.21
2023-02-11T01:41:38.587Z,3.37
2023-02-11T01:44:31.435Z,3.22
2023-02-11T01:47:00.057Z,3.18
2023-02-11T01:49:29.734Z,3.16
2023-02-11T01:52:02.748Z,3.07
2023-02-11T01:54:51.377Z,2.96
2023-02-11T01:57:23.439Z,2.92
2023-02-11T02:00:05.863Z,2.81
2023-02-11T02:02:49.508Z,2.85
2023-02-11T02:05:25.081Z,2.83
2023-02-11T02:07:59.358Z,2.77
2023-02-11T02:10:29.390Z,2.74
2023-02-11T02:13:01.132Z,2.74
2023-02-11T02:15:33.039Z,2.53
2023-02-11T02:18:09.896Z,2.64
2023-02-11T02:21:11.079Z,2.64
2023-02-11T02:24:04.886Z,2.66
2023-02-11T02:27:04.833Z,2.69
2023-02-11T02:30:12.303Z,2.73
2023-02-11T02:33:20.558Z,2.72
2023-02-11T02:35:58.987Z,2.60
2023-02-11T02:38:32.187Z,2.78
2023-02-11T02:41:05.368Z,2.80
2023-02-11T02:43:39.366Z,2.70
2023-02-11T02:46:15.624Z,2.67
2023-02-11T02:48:48.637Z,2.74
2023-02-11T02:51:36.808Z,2.74
2023-02-11T02:54:31.197Z,2.72
2023-02-11T02:57:04.953Z,2.69
2023-02-11T02:59:46.616Z,2.68
2023-02-11T03:02:24.056Z,2.84
2023-02-11T03:05:00.592Z,2.98
2023-02-11T03:07:38.421Z,2.82
2023-02-11T03:10:13.998Z,2.88
2023-02-11T03:12:45.221Z,2.73
2023-02-11T03:15:16.206Z,2.95
2023-02-11T03:17:48.327Z,2.98
2023-02-11T03:20:22.486Z,3.02
2023-02-11T03:22:54.227Z,2.88
2023-02-11T03:25:28.032Z,2.79
2023-02-11T03:28:05.837Z,2.99
2023-02-11T03:30:39.958Z,2.95
2023-02-11T03:33:15.992Z,3.07
2023-02-11T03:35:52.060Z,2.93
2023-02-11T03:38:30.949Z,2.78
2023-02-11T03:40:59.968Z,2.74
2023-02-11T03:43:32.803Z,2.76
2023-02-11T03:46:03.359Z,2.84
2023-02-11T03:48:35.857Z,2.76
2023-02-11T03:51:08.632Z,2.87
2023-02-11T03:53:39.610Z,2.80
2023-02-11T03:56:11.313Z,2.73
2023-02-11T03:58:38.828Z,2.85
2023-02-11T04:01:09.867Z,2.73
2023-02-11T04:03:38.645Z,2.75
2023-02-11T04:06:08.007Z,2.84
2023-02-11T04:08:35.665Z,2.86
2023-02-11T04:11:03.463Z,2.81
2023-02-11T04:13:31.582Z,2.84
2023-02-11T04:15:59.233Z,2.87
2023-02-11T04:18:27.222Z,2.84
2023-02-11T04:20:55.087Z,2.82
2023-02-11T04:23:24.083Z,2.98
2023-02-11T04:25:52.073Z,3.01
2023-02-11T04:28:19.893Z,2.90
2023-02-11T04:30:51.002Z,2.86
2023-02-11T04:33:26.257Z,3.05
2023-02-11T04:35:55.292Z,3.08
2023-02-11T04:38:28.827Z,3.11
2023-02-11T04:40:56.476Z,3.31
2023-02-11T04:43:24.041Z,3.29
2023-02-11T04:45:54.192Z,3.40
2023-02-11T04:48:22.145Z,3.50
2023-02-11T04:50:49.728Z,3.55
2023-02-11T04:53:17.327Z,3.45
2023-02-11T04:55:46.594Z,3.25
2023-02-11T04:58:15.271Z,3.15
2023-02-11T05:00:42.908Z,3.24
2023-02-11T05:03:12.023Z,3.35
2023-02-11T05:05:40.278Z,3.26
2023-02-11T05:08:08.142Z,3.13
2023-02-11T05:10:35.845Z,3.14
2023-02-11T05:13:05.172Z,3.29
2023-02-11T05:15:32.779Z,3.22
2023-02-11T05:18:00.543Z,3.21
2023-02-11T05:20:28.572Z,3.28
2023-02-11T05:22:58.818Z,3.20
2023-02-11T05:25:27.847Z,3.26
2023-02-11T05:27:55.430Z,3.30
2023-02-11T05:30:34.003Z,3.27
2023-02-11T05:33:03.214Z,3.28
2023-02-11T05:35:38.370Z,3.45
2023-02-11T05:38:06.722Z,3.38
2023-02-11T05:40:34.381Z,3.33
2023-02-11T05:43:02.964Z,3.19
2023-02-11T05:45:32.237Z,3.20
2023-02-11T05:47:59.894Z,3.19
2023-02-11T05:50:27.676Z,3.12
2023-02-11T05:52:55.299Z,3.11
2023-02-11T05:55:23.039Z,3.14
2023-02-11T05:57:50.631Z,3.30
2023-02-11T06:00:19.380Z,3.22
2023-02-11T06:02:49.450Z,3.30
2023-02-11T06:05:17.236Z,3.26
2023-02-11T06:07:44.856Z,3.03
2023-02-11T06:10:15.136Z,3.07
2023-02-11T06:12:42.909Z,3.13
2023-02-11T06:15:10.761Z,3.21
2023-02-11T06:17:38.294Z,3.25
2023-02-11T06:20:10.468Z,3.17
2023-02-11T06:22:38.083Z,3.16
2023-02-11T06:25:08.683Z,3.24
2023-02-11T06:27:36.314Z,3.18
2023-02-11T06:30:05.290Z,3.06
2023-02-11T06:32:43.849Z,2.93
2023-02-11T06:35:14.358Z,2.98
2023-02-11T06:37:42.333Z,3.11
2023-02-11T06:40:11.897Z,3.19
2023-02-11T06:42:39.944Z,2.90
2023-02-11T06:45:09.298Z,2.68
2023-02-11T06:47:37.084Z,2.79
2023-02-11T06:50:05.758Z,2.69
2023-02-11T06:52:38.949Z,2.74
2023-02-11T06:55:07.695Z,2.93
2023-02-11T06:57:35.263Z,2.97
2023-02-11T07:00:02.979Z,2.96
2023-02-11T07:02:31.735Z,2.95
2023-02-11T07:04:59.322Z,3.07
2023-02-11T07:07:31.284Z,3.10
2023-02-11T07:10:03.382Z,3.15
2023-02-11T07:12:31.134Z,3.12
2023-02-11T07:14:58.929Z,3.31
2023-02-11T07:17:27.593Z,3.34
2023-02-11T07:19:55.239Z,3.39
2023-02-11T07:22:23.863Z,3.36
2023-02-11T07:24:54.568Z,3.32
2023-02-11T07:27:26.258Z,3.61
2023-02-11T07:29:54.187Z,3.61
2023-02-11T07:32:21.870Z,3.79
2023-02-11T07:34:49.945Z,4.01
2023-02-11T07:37:17.889Z,3.85
2023-02-11T07:39:45.777Z,4.06
2023-02-11T07:42:13.986Z,4.19
2023-02-11T07:44:42.977Z,4.16
2023-02-11T07:47:10.616Z,4.37
2023-02-11T07:49:38.344Z,4.42
2023-02-11T07:52:06.290Z,4.40
2023-02-11T07:54:36.517Z,4.46
2023-02-11T07:57:04.136Z,4.63
2023-02-11T07:59:31.869Z,4.79
2023-02-11T08:02:11.524Z,4.76
2023-02-11T08:10:02.854Z,5.65
2023-02-11T08:12:31.161Z,5.69
2023-02-11T08:14:58.792Z,5.22
2023-02-11T08:17:28.030Z,5.20
2023-02-11T08:19:55.667Z,5.18
2023-02-11T08:22:23.320Z,5.18
2023-02-11T08:24:52.469Z,5.19
2023-02-11T08:27:20.424Z,5.17
2023-02-11T08:29:48.287Z,5.63
2023-02-11T08:32:15.961Z,5.41
2023-02-11T08:34:44.892Z,5.45
2023-02-11T08:37:12.593Z,5.72
2023-02-11T08:39:40.256Z,5.52
2023-02-11T08:42:07.913Z,5.65
2023-02-11T08:44:35.469Z,5.56
2023-02-11T08:47:03.022Z,5.84
2023-02-11T08:49:32.415Z,6.02
2023-02-11T08:52:04.171Z,6.08
2023-02-11T08:54:32.656Z,6.01
2023-02-11T08:57:04.771Z,6.02
2023-02-11T08:59:32.511Z,6.13
2023-02-11T09:02:00.119Z,6.35
2023-02-11T09:04:28.823Z,6.61
2023-02-11T09:06:56.570Z,6.55
2023-02-11T09:09:28.197Z,6.73
2023-02-11T09:11:58.319Z,6.74
2023-02-11T09:14:26.041Z,6.68
2023-02-11T09:16:54.165Z,6.39
2023-02-11T09:19:23.033Z,6.73
2023-02-11T09:21:50.744Z,7.07
2023-02-11T09:24:18.531Z,7.30
2023-02-11T09:26:50.690Z,7.52
2023-02-11T09:29:18.286Z,6.90
2023-02-11T09:31:46.079Z,6.69
2023-02-11T09:34:15.389Z,6.77
2023-02-11T09:36:43.059Z,6.83
2023-02-11T09:39:13.971Z,6.29
2023-02-11T09:42:26.180Z,6.62
2023-02-11T09:44:55.258Z,6.49
2023-02-11T09:47:31.152Z,6.42
2023-02-11T09:50:04.502Z,6.34
2023-02-11T09:52:38.455Z,6.31
2023-02-11T09:55:18.720Z,6.44
2023-02-11T09:57:48.069Z,6.84
2023-02-11T10:00:25.516Z,6.96
2023-02-11T10:03:17.724Z,6.80
2023-02-11T10:06:03.625Z,6.85
2023-02-11T10:08:44.926Z,6.84
2023-02-11T10:11:31.228Z,7.04
2023-02-11T10:14:20.530Z,7.13
2023-02-11T10:16:58.722Z,7.37
2023-02-11T10:19:38.668Z,7.25
2023-02-11T10:22:14.419Z,7.24
2023-02-11T10:24:44.721Z,7.51
2023-02-11T10:27:19.305Z,7.69
2023-02-11T10:29:55.165Z,7.40
2023-02-11T10:32:32.876Z,7.24
2023-02-11T10:35:04.788Z,6.70
2023-02-11T10:37:32.613Z,6.87
2023-02-11T10:40:01.522Z,6.85
2023-02-11T10:42:30.456Z,6.64
2023-02-11T10:45:04.291Z,6.92
2023-02-11T10:47:38.126Z,7.06
2023-02-11T10:50:19.912Z,7.32
2023-02-11T10:52:47.497Z,7.40
2023-02-11T10:55:18.077Z,7.37
2023-02-11T10:57:53.937Z,7.33
2023-02-11T11:00:37.122Z,7.54
2023-02-11T11:03:07.424Z,7.67
2023-02-11T11:05:38.212Z,7.67
2023-02-11T11:08:08.700Z,7.71
2023-02-11T11:10:47.534Z,7.59
2023-02-11T11:13:30.630Z,7.79
2023-02-11T11:16:20.777Z,7.74
2023-02-11T11:18:50.685Z,7.72
2023-02-11T11:21:22.530Z,7.58
2023-02-11T11:24:02.143Z,7.63
2023-02-11T11:26:41.205Z,7.79
2023-02-11T11:29:15.834Z,8.00
2023-02-11T11:31:52.524Z,7.64
2023-02-11T11:34:24.885Z,7.66
2023-02-11T11:36:52.889Z,7.88
2023-02-11T11:39:27.370Z,7.94
2023-02-11T11:41:58.510Z,7.83
2023-02-11T11:44:34.434Z,7.96
2023-02-11T11:47:30.296Z,7.80
2023-02-11T11:50:15.225Z,7.67
2023-02-11T11:52:52.183Z,7.58
2023-02-11T11:55:23.756Z,7.53
2023-02-11T11:57:51.730Z,7.87
2023-02-11T12:00:23.374Z,7.93
2023-02-11T12:03:32.839Z,8.13
2023-02-11T12:06:34.378Z,8.45
2023-02-11T12:09:30.708Z,8.45
2023-02-11T12:12:20.748Z,8.37
2023-02-11T12:14:59.906Z,8.51
2023-02-11T12:17:43.436Z,8.59
2023-02-11T12:20:33.884Z,8.80
2023-02-11T12:23:17.136Z,8.99
2023-02-11T12:25:52.268Z,8.57
2023-02-11T12:28:34.699Z,8.66
2023-02-11T12:31:15.190Z,8.88
2023-02-11T12:34:02.573Z,9.04
2023-02-11T12:36:46.767Z,8.79
2023-02-11T12:39:28.083Z,8.77
2023-02-11T12:42:28.656Z,8.81
2023-02-11T12:45:10.253Z,8.66
2023-02-11T12:47:49.710Z,8.50
2023-02-11T12:50:28.758Z,8.36
2023-02-11T12:53:15.064Z,8.05
2023-02-11T12:55:52.239Z,8.27
2023-02-11T12:58:35.529Z,8.01
2023-02-11T13:01:20.417Z,8.39
2023-02-11T13:03:55.707Z,8.42
2023-02-11T13:06:30.580Z,8.42
2023-02-11T13:09:03.864Z,8.35
2023-02-11T13:11:40.806Z,8.27
2023-02-11T13:14:17.184Z,8.37
2023-02-11T13:16:47.431Z,8.48
2023-02-11T13:19:25.103Z,8.27
2023-02-11T13:22:04.031Z,8.11
2023-02-11T13:24:42.691Z,8.30
2023-02-11T13:27:23.564Z,8.30
2023-02-11T13:30:14.736Z,8.20
2023-02-11T13:33:17.682Z,8.22
2023-02-11T13:35:49.658Z,8.21
2023-02-11T13:38:23.555Z,8.21
2023-02-11T13:41:06.840Z,8.29
2023-02-11T13:43:36.708Z,8.17
2023-02-11T13:46:06.562Z,8.22
2023-02-11T13:48:38.064Z,8.17
2023-02-11T13:51:08.742Z,8.34
2023-02-11T13:53:47.733Z,8.30
2023-02-11T13:56:30.438Z,8.28
2023-02-11T13:59:05.784Z,8.25
2023-02-11T14:02:15.982Z,8.41
2023-02-11T14:05:38.373Z,8.38
2023-02-11T14:08:42.162Z,8.34
2023-02-11T14:11:36.960Z,8.40
2023-02-11T14:14:18.586Z,8.31
2023-02-11T14:17:31.484Z,8.11
2023-02-11T14:20:00.395Z,8.20
2023-02-11T14:22:30.507Z,8.31
2023-02-11T14:25:01.426Z,8.63
2023-02-11T14:27:45.464Z,8.65
2023-02-11T14:30:30.190Z,8.54
2023-02-11T14:33:23.752Z,8.59
2023-02-11T14:36:02.184Z,8.67
2023-02-11T14:38:42.019Z,8.61
2023-02-11T14:41:17.195Z,8.70
2023-02-11T14:43:50.954Z,8.62
2023-02-11T14:46:21.888Z,8.58
2023-02-11T14:48:52.414Z,8.72
2023-02-11T14:51:23.208Z,8.61
2023-02-11T14:53:53.922Z,8.57
2023-02-11T14:56:24.639Z,8.54
2023-02-11T14:58:52.710Z,8.46
2023-02-11T15:01:28.983Z,8.34
2023-02-11T15:03:59.034Z,8.21
2023-02-11T15:06:29.866Z,8.32
2023-02-11T15:09:04.200Z,8.28
2023-02-11T15:11:42.145Z,8.27
2023-02-11T15:14:15.595Z,8.26
2023-02-11T15:16:54.028Z,8.33
2023-02-11T15:22:08.298Z,8.17
2023-02-11T15:24:36.429Z,8.24
2023-02-11T15:27:23.513Z,8.25
2023-02-11T15:30:03.415Z,8.37
2023-02-11T15:32:31.501Z,8.20
2023-02-11T15:35:05.279Z,8.20
2023-02-11T15:37:35.424Z,8.17
2023-02-11T15:40:19.055Z,8.26
2023-02-11T15:42:58.530Z,8.25
2023-02-11T15:45:52.743Z,8.21
2023-02-11T15:48:45.012Z,8.24
2023-02-11T15:51:40.285Z,8.21
2023-02-11T15:54:21.871Z,8.26
2023-02-11T15:56:56.306Z,8.36
2023-02-11T15:59:35.367Z,8.28
2023-02-11T16:02:12.392Z,8.27
2023-02-11T16:04:40.080Z,8.44
2023-02-11T16:07:08.339Z,8.39
2023-02-11T16:09:38.293Z,8.40
2023-02-11T16:12:29.160Z,8.31
2023-02-11T16:14:59.812Z,8.32
2023-02-11T16:20:25.728Z,8.22
2023-02-11T16:22:53.920Z,8.28
2023-02-11T16:25:28.111Z,8.07
2023-02-11T16:27:56.706Z,8.00
2023-02-11T16:30:31.807Z,7.97
2023-02-11T16:33:04.059Z,7.95
2023-02-11T16:35:39.771Z,8.04
2023-02-11T16:38:20.506Z,8.25
2023-02-11T16:40:51.350Z,8.21
2023-02-11T16:43:23.371Z,8.13
2023-02-11T16:45:52.509Z,7.88
2023-02-11T16:48:24.034Z,7.90
2023-02-11T16:50:53.642Z,7.83
2023-02-11T16:53:24.684Z,7.83
2023-02-11T16:55:54.953Z,7.87
2023-02-11T16:58:25.546Z,7.84
2023-02-11T17:01:02.537Z,7.93
2023-02-11T17:03:43.550Z,7.77
2023-02-11T17:06:13.939Z,7.79
2023-02-11T17:08:43.008Z,7.90
2023-02-11T17:11:16.714Z,7.82
2023-02-11T17:13:44.911Z,7.91
2023-02-11T17:16:24.953Z,7.72
2023-02-11T17:18:53.419Z,7.84
2023-02-11T17:21:27.640Z,7.79
2023-02-11T17:23:59.545Z,7.74
2023-02-11T17:26:34.844Z,7.76
2023-02-11T17:29:08.190Z,7.83
2023-02-11T17:31:41.385Z,7.77
2023-02-11T17:34:09.786Z,7.70
2023-02-11T17:36:37.379Z,7.67
2023-02-11T17:39:08.266Z,7.54
2023-02-11T17:41:38.794Z,7.48
2023-02-11T17:44:09.013Z,7.41
2023-02-11T17:46:36.949Z,7.42
2023-02-11T17:49:17.209Z,7.54
2023-02-11T17:51:47.209Z,7.45
2023-02-11T17:54:23.761Z,7.44
2023-02-11T17:56:56.343Z,7.53
2023-02-11T17:59:25.968Z,7.60
2023-02-11T18:01:53.942Z,7.47
2023-02-11T18:04:23.834Z,7.41
2023-02-11T18:06:54.824Z,7.40
2023-02-11T18:09:23.490Z,7.45
2023-02-11T18:11:56.813Z,7.59
2023-02-11T18:14:25.762Z,7.58
2023-02-11T18:16:54.496Z,7.41
2023-02-11T18:19:24.742Z,7.53
2023-02-11T18:21:52.742Z,7.68
2023-02-11T18:24:33.674Z,7.70
2023-02-11T18:27:03.058Z,7.56
2023-02-11T18:29:33.196Z,7.57
2023-02-11T18:32:10.861Z,7.64
2023-02-11T18:34:40.956Z,7.56
2023-02-11T18:37:09.101Z,7.43
2023-02-11T18:39:42.262Z,7.43
2023-02-11T18:42:16.937Z,7.32
2023-02-11T18:44:46.300Z,7.37
2023-02-11T18:47:16.799Z,7.17
2023-02-11T18:49:46.161Z,7.19
2023-02-11T18:52:23.344Z,7.30
2023-02-11T18:54:54.856Z,7.32
2023-02-11T18:57:24.810Z,7.16
2023-02-11T18:59:52.769Z,7.19
2023-02-11T19:02:24.399Z,7.28
2023-02-11T19:04:53.735Z,7.23
2023-02-11T19:07:25.273Z,7.32
2023-02-11T19:09:55.745Z,7.27
2023-02-11T19:12:25.179Z,7.36
2023-02-11T19:14:53.035Z,7.40
2023-02-11T19:17:20.606Z,7.33
2023-02-11T19:20:05.906Z,7.28
2023-02-11T19:22:39.874Z,7.37
2023-02-11T19:25:09.296Z,7.51
2023-02-11T19:27:47.748Z,7.60
2023-02-11T19:30:18.756Z,7.53
2023-02-11T19:32:56.794Z,7.40
2023-02-11T19:35:33.248Z,7.51
2023-02-11T19:38:03.450Z,7.57
2023-02-11T19:40:36.569Z,7.47
2023-02-11T19:43:05.855Z,7.41
2023-02-11T19:45:33.827Z,7.41
2023-02-11T19:48:04.348Z,7.49
2023-02-11T19:50:33.425Z,7.53
2023-02-11T19:53:05.699Z,7.43
2023-02-11T19:55:38.434Z,7.44
2023-02-11T19:58:07.546Z,7.57
2023-02-11T20:00:35.088Z,7.62
2023-02-11T20:03:03.340Z,7.69
2023-02-11T20:05:31.455Z,7.59
2023-02-11T20:08:01.433Z,7.46
2023-02-11T20:10:29.316Z,7.54
2023-02-11T20:12:56.867Z,7.58
2023-02-11T20:15:32.031Z,7.53
2023-02-11T20:18:09.291Z,7.47
2023-02-11T20:20:39.484Z,7.59
2023-02-11T20:23:07.945Z,7.58
2023-02-11T20:25:47.031Z,7.65
2023-02-11T20:28:18.320Z,7.57
2023-02-11T20:30:56.776Z,7.60
2023-02-11T20:33:26.340Z,7.67
2023-02-11T20:36:14.424Z,7.62
2023-02-11T20:38:47.946Z,7.59
2023-02-11T20:41:20.871Z,7.58
2023-02-11T20:44:00.636Z,7.62
2023-02-11T20:46:35.494Z,7.43
2023-02-11T20:49:05.080Z,7.46
2023-02-11T20:51:36.870Z,7.43
2023-02-11T20:54:08.029Z,7.51
2023-02-11T20:56:39.612Z,7.59
2023-02-11T20:59:10.277Z,7.52
2023-02-11T21:01:41.988Z,7.58
2023-02-11T21:04:21.635Z,7.59
2023-02-11T21:06:52.290Z,7.60
2023-02-11T21:09:25.787Z,7.46
2023-02-11T21:12:02.409Z,7.43
2023-02-11T21:14:30.558Z,7.40
2023-02-11T21:17:07.420Z,7.52
2023-02-11T21:19:36.019Z,7.32
2023-02-11T21:22:07.952Z,7.31
2023-02-11T21:24:36.844Z,7.40
2023-02-11T21:27:06.032Z,7.51
2023-02-11T21:29:45.752Z,7.53
2023-02-11T21:32:28.370Z,7.57
2023-02-11T21:35:01.855Z,7.53
2023-02-11T21:37:30.329Z,7.50
2023-02-11T21:40:00.807Z,7.45
2023-02-11T21:42:29.583Z,7.46
2023-02-11T21:47:51.024Z,7.55
2023-02-11T21:50:29.167Z,7.58
2023-02-11T21:52:58.599Z,7.62
2023-02-11T21:55:28.256Z,7.68
2023-02-11T21:57:56.379Z,7.78
2023-02-11T22:00:37.298Z,7.80
2023-02-11T22:03:16.521Z,7.76
2023-02-11T22:05:44.615Z,7.78
2023-02-11T22:08:17.459Z,7.77
2023-02-11T22:10:46.161Z,7.90
2023-02-11T22:13:14.457Z,7.88
2023-02-11T22:15:42.427Z,7.76
2023-02-11T22:18:17.978Z,7.74
2023-02-11T22:20:47.440Z,7.77
2023-02-11T22:23:15.573Z,7.72
2023-02-11T22:25:46.724Z,7.76
2023-02-11T22:28:22.812Z,7.86
2023-02-11T22:30:55.383Z,7.80
2023-02-11T22:33:56.549Z,7.74
2023-02-11T22:36:46.619Z,7.74
2023-02-11T22:42:28.093Z,7.81
2023-02-11T22:44:56.043Z,7.78
2023-02-11T22:47:23.576Z,7.80
2023-02-11T22:49:53.970Z,7.61
2023-02-11T22:52:22.607Z,7.50
2023-02-11T22:54:55.559Z,7.61
2023-02-11T22:57:24.555Z,7.65
2023-02-11T22:59:53.078Z,7.76
2023-02-11T23:02:21.222Z,7.80
2023-02-11T23:04:50.011Z,7.83
2023-02-11T23:07:17.698Z,7.86
2023-02-11T23:09:45.404Z,7.86
2023-02-11T23:12:12.894Z,7.83
2023-02-11T23:14:42.608Z,7.93
2023-02-11T23:17:10.239Z,7.93
2023-02-11T23:19:38.073Z,7.64
2023-02-11T23:22:05.568Z,7.48
2023-02-11T23:24:33.147Z,7.45
2023-02-11T23:27:00.820Z,7.44
2023-02-11T23:29:28.460Z,7.64
2023-02-11T23:31:59.007Z,7.59
2023-02-11T23:34:26.783Z,7.53
2023-02-11T23:36:54.747Z,7.38
2023-02-11T23:39:22.398Z,7.62
2023-02-11T23:41:52.692Z,7.61
2023-02-11T23:44:20.301Z,7.65
2023-02-11T23:46:48.648Z,7.62
2023-02-11T23:49:17.499Z,7.64
2023-02-11T23:51:45.136Z,7.61
2023-02-11T23:54:15.541Z,7.63
2023-02-11T23:56:43.594Z,7.65
2023-02-11T23:59:11.558Z,7.77
